Sunny Bright — H8CD — position and weather

sailwx.info

Track history (hours):
 
Tides and Currents Weather Stations Pressure Air Temp Water Temp Dewpoint Dewpoint Depression Visibility Wind Speed Wind Dir Waves Ship Positions

Sunny Bright

Last reported at 2018-Jun-24 01:25 UTC. Time now 2018-Jun-24 11:16 UTC.
Position N 35°28' E 139°58'.

Length 230 m; beam 36.6 m.

Type: Tanker. MMSI: 356825000.

Date/timePositionNaut miles runAvg speedWind from/ knotsBaromVisibWave heightAir tempDewpointWater temp
2018-Jun-24 01:25N 35°28' E 139°58'0 0.0
2018-Jun-24 01:00N 35°28' E 139°58'1 1.6
2018-Jun-24 00:30N 35°29' E 139°58'5 9.5
2018-Jun-24 00:00N 35°33' E 140°00'4 8.2
2018-Jun-23 23:29N 35°36' E 140°05'2 0.1
2018-Jun-23 00:29N 35°35' E 140°03'4 8.5
2018-Jun-23 00:00N 35°33' E 139°58'4 8.2
2018-Jun-22 23:31N 35°30' E 139°54'5 9.2
2018-Jun-22 23:00N 35°27' E 139°50'5 9.7
2018-Jun-22 22:30N 35°24' E 139°46'510.6
2018-Jun-22 22:00N 35°19' E 139°44'510.4
2018-Jun-22 21:30N 35°14' E 139°47'5 9.3
2018-Jun-22 20:59N 35°09' E 139°46'4 8.5
2018-Jun-22 20:30N 35°05' E 139°45'510.7
2018-Jun-22 20:00N 35°00' E 139°43'  
2018-Jun-15 05:08N 01°49' E 104°43'3214.3
2018-Jun-15 02:56N 01°22' E 104°26'613.5
2018-Jun-15 02:29N 01°18' E 104°21'813.7
2018-Jun-15 01:56N 01°16' E 104°14'614.2
2018-Jun-15 01:30N 01°16' E 104°08'714.2
2018-Jun-15 01:00N 01°14' E 104°01'612.6
2018-Jun-15 00:30N 01°13' E 103°55'714.0
2018-Jun-15 00:00N 01°10' E 103°48'713.6
2018-Jun-14 23:30N 01°05' E 103°43'611.8
2018-Jun-14 23:00N 01°03' E 103°38'612.8
2018-Jun-14 22:30N 01°06' E 103°32'712.7
2018-Jun-14 21:56N 01°10' E 103°26'613.6
2018-Jun-14 21:29N 01°14' E 103°21'713.7
2018-Jun-14 21:00N 01°18' E 103°16'814.9
2018-Jun-14 20:29N 01°23' E 103°10'  
Track history (hours):
 
Tides and Currents Weather Stations Pressure Air Temp Water Temp Dewpoint Dewpoint Depression Visibility Wind Speed Wind Dir Waves Ship Positions

Sunny Bright

Last reported at 2018-Jun-24 01:25 UTC. Time now 2018-Jun-24 11:16 UTC.
Position N 35°28' E 139°58'.

Length 230 m; beam 36.6 m.

Type: Tanker. MMSI: 356825000.

Date/timePositionNaut miles runAvg speedWind from/ knotsBaromVisibWave heightAir tempDewpointWater temp
2018-Jun-24 01:25N 35°28' E 139°58'0 0.0
2018-Jun-24 01:00N 35°28' E 139°58'1 1.6
2018-Jun-24 00:30N 35°29' E 139°58'5 9.5
2018-Jun-24 00:00N 35°33' E 140°00'4 8.2
2018-Jun-23 23:29N 35°36' E 140°05'2 0.1
2018-Jun-23 00:29N 35°35' E 140°03'4 8.5
2018-Jun-23 00:00N 35°33' E 139°58'4 8.2
2018-Jun-22 23:31N 35°30' E 139°54'5 9.2
2018-Jun-22 23:00N 35°27' E 139°50'5 9.7
2018-Jun-22 22:30N 35°24' E 139°46'510.6
2018-Jun-22 22:00N 35°19' E 139°44'510.4
2018-Jun-22 21:30N 35°14' E 139°47'5 9.3
2018-Jun-22 20:59N 35°09' E 139°46'4 8.5
2018-Jun-22 20:30N 35°05' E 139°45'510.7
2018-Jun-22 20:00N 35°00' E 139°43'  
2018-Jun-15 05:08N 01°49' E 104°43'3214.3
2018-Jun-15 02:56N 01°22' E 104°26'613.5
2018-Jun-15 02:29N 01°18' E 104°21'813.7
2018-Jun-15 01:56N 01°16' E 104°14'614.2
2018-Jun-15 01:30N 01°16' E 104°08'714.2
2018-Jun-15 01:00N 01°14' E 104°01'612.6
2018-Jun-15 00:30N 01°13' E 103°55'714.0
2018-Jun-15 00:00N 01°10' E 103°48'713.6
2018-Jun-14 23:30N 01°05' E 103°43'611.8
2018-Jun-14 23:00N 01°03' E 103°38'612.8
2018-Jun-14 22:30N 01°06' E 103°32'712.7
2018-Jun-14 21:56N 01°10' E 103°26'613.6
2018-Jun-14 21:29N 01°14' E 103°21'713.7
2018-Jun-14 21:00N 01°18' E 103°16'814.9
2018-Jun-14 20:29N 01°23' E 103°10'  

Dump ship's entire track history